createdAt,value
2022-08-05T00:00:16.879Z,19.05
2022-08-05T00:03:03.889Z,19.06
2022-08-05T00:06:05.365Z,19.06
2022-08-05T00:08:35.132Z,19.05
2022-08-05T00:11:20.828Z,19.04
2022-08-05T00:13:56.995Z,19.02
2022-08-05T00:16:35.397Z,19.01
2022-08-05T00:19:04.228Z,19.02
2022-08-05T00:21:31.379Z,19.03
2022-08-05T00:24:10.741Z,19.03
2022-08-05T00:26:38.641Z,19.02
2022-08-05T00:29:05.505Z,19.02
2022-08-05T00:31:53.400Z,18.99
2022-08-05T00:34:53.628Z,18.94
2022-08-05T00:37:11.754Z,18.94
2022-08-05T00:39:57.138Z,18.92
2022-08-05T00:42:41.759Z,18.89
2022-08-05T00:45:11.775Z,18.89
2022-08-05T00:47:56.585Z,18.87
2022-08-05T00:50:25.428Z,18.87
2022-08-05T00:52:55.115Z,18.88
2022-08-05T00:55:23.226Z,18.91
2022-08-05T00:58:02.174Z,18.90
2022-08-05T01:00:32.136Z,18.88
2022-08-05T01:03:00.952Z,18.88
2022-08-05T01:05:28.114Z,18.89
2022-08-05T01:08:41.464Z,18.89
2022-08-05T01:11:07.785Z,18.89
2022-08-05T01:13:58.356Z,18.88
2022-08-05T01:16:40.316Z,18.87
2022-08-05T01:20:01.823Z,18.84
2022-08-05T01:22:57.485Z,18.81
2022-08-05T01:26:04.200Z,18.81
2022-08-05T01:28:42.543Z,18.82
2022-08-05T01:31:09.482Z,18.79
2022-08-05T01:33:48.924Z,18.74
2022-08-05T01:36:28.148Z,18.71
2022-08-05T01:39:00.112Z,18.66
2022-08-05T01:41:30.839Z,18.63
2022-08-05T01:44:01.094Z,18.60
2022-08-05T01:46:42.850Z,18.59
2022-08-05T01:49:24.229Z,18.60
2022-08-05T01:51:59.484Z,18.60
2022-08-05T01:54:49.571Z,18.53
2022-08-05T01:58:13.192Z,18.48
2022-08-05T02:00:14.734Z,18.43
2022-08-05T02:02:54.440Z,18.37
2022-08-05T02:05:28.598Z,18.35
2022-08-05T02:08:01.581Z,18.33
2022-08-05T02:10:36.245Z,18.26
2022-08-05T02:13:16.378Z,18.17
2022-08-05T02:15:53.318Z,18.04
2022-08-05T02:18:34.298Z,17.97
2022-08-05T02:21:17.937Z,17.89
2022-08-05T02:24:05.371Z,17.84
2022-08-05T02:26:54.107Z,17.79
2022-08-05T02:29:58.247Z,17.73
2022-08-05T02:32:23.991Z,17.65
2022-08-05T02:34:59.838Z,17.57
2022-08-05T02:37:34.540Z,17.52
2022-08-05T02:40:02.763Z,17.54
2022-08-05T02:42:36.111Z,17.51
2022-08-05T02:45:04.199Z,17.44
2022-08-05T02:47:58.475Z,17.39
2022-08-05T02:50:23.765Z,17.40
2022-08-05T02:52:52.161Z,17.38
2022-08-05T02:55:52.220Z,17.35
2022-08-05T02:58:09.460Z,17.31
2022-08-05T03:00:48.471Z,17.27
2022-08-05T03:03:19.890Z,17.25
2022-08-05T03:06:56.815Z,17.25
2022-08-05T03:08:42.547Z,17.22
2022-08-05T03:11:56.316Z,17.21
2022-08-05T03:14:08.299Z,17.22
2022-08-05T03:16:35.921Z,17.16
2022-08-05T03:19:12.928Z,17.14
2022-08-05T03:21:51.362Z,17.09
2022-08-05T03:24:29.657Z,17.02
2022-08-05T03:26:59.696Z,16.89
2022-08-05T03:29:45.837Z,16.76
2022-08-05T03:32:15.811Z,16.69
2022-08-05T03:34:49.603Z,16.67
2022-08-05T03:37:20.255Z,16.66
2022-08-05T03:40:00.999Z,16.67
2022-08-05T03:42:32.486Z,16.67
2022-08-05T03:45:01.751Z,16.71
2022-08-05T03:47:47.673Z,16.78
2022-08-05T03:50:16.243Z,16.83
2022-08-05T03:54:59.288Z,16.83
2022-08-05T03:56:17.165Z,16.85
2022-08-05T03:58:59.631Z,16.87
2022-08-05T04:01:32.275Z,16.87
2022-08-05T04:04:09.281Z,16.87
2022-08-05T04:06:47.488Z,16.85
2022-08-05T04:09:20.334Z,16.85
2022-08-05T04:11:56.413Z,16.87
2022-08-05T04:14:30.554Z,16.91
2022-08-05T04:17:02.137Z,16.94
2022-08-05T04:19:30.400Z,16.97
2022-08-05T04:22:10.039Z,17.01
2022-08-05T04:24:52.944Z,17.08
2022-08-05T04:27:42.179Z,17.16
2022-08-05T04:30:08.683Z,17.27
2022-08-05T04:32:35.926Z,17.34
2022-08-05T04:35:04.733Z,17.42
2022-08-05T04:38:02.181Z,17.49
2022-08-05T04:40:21.576Z,17.57
2022-08-05T04:42:48.342Z,17.65
2022-08-05T04:45:31.343Z,17.73
2022-08-05T04:48:16.534Z,17.81
2022-08-05T04:51:03.365Z,17.93
2022-08-05T04:53:39.159Z,18.05
2022-08-05T04:56:32.699Z,18.16
2022-08-05T04:58:54.356Z,18.24
2022-08-05T05:01:33.635Z,18.35
2022-08-05T05:04:08.121Z,18.54
2022-08-05T05:06:40.506Z,18.68
2022-08-05T05:09:14.004Z,18.81
2022-08-05T05:11:54.025Z,18.91
2022-08-05T05:14:28.080Z,19.02
2022-08-05T05:17:00.214Z,19.16
2022-08-05T05:19:36.341Z,19.30
2022-08-05T05:22:23.488Z,19.48
2022-08-05T05:24:56.804Z,19.63
2022-08-05T05:27:41.162Z,19.77
2022-08-05T05:30:15.548Z,19.95
2022-08-05T05:33:00.415Z,20.12
2022-08-05T05:35:34.313Z,20.28
2022-08-05T05:38:06.451Z,20.45
2022-08-05T05:40:36.455Z,20.57
2022-08-05T05:43:03.805Z,20.67
2022-08-05T05:45:30.568Z,20.81
2022-08-05T05:48:06.660Z,20.96
2022-08-05T05:50:41.089Z,21.12
2022-08-05T05:53:21.131Z,21.27
2022-08-05T05:55:52.264Z,21.53
2022-08-05T05:58:31.380Z,21.73
2022-08-05T06:01:12.464Z,21.86
2022-08-05T06:04:00.871Z,22.05
2022-08-05T06:06:31.374Z,22.23
2022-08-05T06:09:04.717Z,22.28
2022-08-05T06:11:32.791Z,22.37
2022-08-05T06:14:00.838Z,22.48
2022-08-05T06:16:33.040Z,22.62
2022-08-05T06:19:07.348Z,22.80
2022-08-05T06:21:38.364Z,22.92
2022-08-05T06:24:12.260Z,23.14
2022-08-05T06:26:45.857Z,23.38
2022-08-05T06:29:23.642Z,23.64
2022-08-05T06:32:21.272Z,24.05
2022-08-05T06:34:58.382Z,24.50
2022-08-05T06:37:58.011Z,24.72
2022-08-05T06:40:17.921Z,24.72
2022-08-05T06:42:51.746Z,24.89
2022-08-05T06:45:43.943Z,24.99
2022-08-05T06:48:37.107Z,25.06
2022-08-05T06:50:56.968Z,25.38
2022-08-05T06:53:28.195Z,25.54
2022-08-05T06:56:00.604Z,25.70
2022-08-05T06:58:35.124Z,26.29
2022-08-05T07:01:05.538Z,26.62
2022-08-05T07:03:33.393Z,27.04
2022-08-05T07:06:05.980Z,27.51
2022-08-05T07:08:47.477Z,27.96
2022-08-05T07:11:22.216Z,28.12
2022-08-05T07:14:19.975Z,28.29
2022-08-05T07:17:56.503Z,28.30
2022-08-05T07:20:29.792Z,28.69
2022-08-05T07:22:28.321Z,28.84
2022-08-05T07:25:09.494Z,28.78
2022-08-05T07:27:57.336Z,28.66
2022-08-05T07:30:32.813Z,28.80
2022-08-05T07:33:05.474Z,28.88
2022-08-05T07:36:01.939Z,29.13
2022-08-05T07:38:33.428Z,29.08
2022-08-05T07:42:08.073Z,28.88
2022-08-05T07:43:57.660Z,28.82
2022-08-05T07:46:29.627Z,28.89
2022-08-05T07:49:03.852Z,28.97
2022-08-05T07:51:36.868Z,29.02
2022-08-05T07:54:09.812Z,28.90
2022-08-05T07:57:00.516Z,28.50
2022-08-05T07:59:38.109Z,28.10
2022-08-05T08:02:16.014Z,28.29
2022-08-05T08:04:48.785Z,28.10
2022-08-05T08:07:22.396Z,28.08
2022-08-05T08:09:52.273Z,28.05
2022-08-05T08:12:36.960Z,28.05
2022-08-05T08:15:14.052Z,27.99
2022-08-05T08:17:52.565Z,27.94
2022-08-05T08:20:59.921Z,27.96
2022-08-05T08:24:00.407Z,27.99
2022-08-05T08:26:00.197Z,27.97
2022-08-05T08:28:36.293Z,28.01
2022-08-05T08:31:06.314Z,27.97
2022-08-05T08:33:37.389Z,27.79
2022-08-05T08:36:38.670Z,27.72
2022-08-05T08:38:55.391Z,27.70
2022-08-05T08:41:26.009Z,27.74
2022-08-05T08:45:23.174Z,27.83
2022-08-05T08:47:03.363Z,27.85
2022-08-05T08:50:22.856Z,27.95
2022-08-05T08:52:41.617Z,28.06
2022-08-05T08:55:19.531Z,28.07
2022-08-05T08:58:03.163Z,28.26
2022-08-05T09:00:30.828Z,28.51
2022-08-05T09:02:59.002Z,28.68
2022-08-05T09:05:38.309Z,29.07
2022-08-05T09:08:06.051Z,29.30
2022-08-05T09:10:36.965Z,29.43
2022-08-05T09:13:08.080Z,29.87
2022-08-05T09:15:37.778Z,30.27
2022-08-05T09:18:08.733Z,30.56
2022-08-05T09:20:37.666Z,30.78
2022-08-05T09:23:18.511Z,31.08
2022-08-05T09:26:00.113Z,31.39
2022-08-05T09:28:33.593Z,31.52
2022-08-05T09:31:23.330Z,31.77
2022-08-05T09:34:01.361Z,32.09
2022-08-05T09:36:55.022Z,31.61
2022-08-05T09:39:27.513Z,31.53
2022-08-05T09:42:11.440Z,31.30
2022-08-05T09:44:49.453Z,31.11
2022-08-05T09:47:21.126Z,30.94
2022-08-05T09:50:02.476Z,30.75
2022-08-05T09:52:33.934Z,30.60
2022-08-05T09:55:57.260Z,30.47
2022-08-05T09:58:00.167Z,30.25
2022-08-05T10:00:30.532Z,30.14
2022-08-05T10:02:58.430Z,29.99
2022-08-05T10:05:28.162Z,29.84
2022-08-05T10:08:11.109Z,29.82
2022-08-05T10:10:43.657Z,29.82
2022-08-05T10:13:10.956Z,29.83
2022-08-05T10:15:43.351Z,29.74
2022-08-05T10:18:23.543Z,29.71
2022-08-05T10:21:06.339Z,29.73
2022-08-05T10:23:59.946Z,29.80
2022-08-05T10:26:32.321Z,29.80
2022-08-05T10:29:00.692Z,29.81
2022-08-05T10:32:54.510Z,29.78
2022-08-05T10:34:16.931Z,29.80
2022-08-05T10:36:45.154Z,29.88
2022-08-05T10:39:58.977Z,29.89
2022-08-05T10:42:32.415Z,29.81
2022-08-05T10:45:20.980Z,29.89
2022-08-05T10:48:29.694Z,29.96
2022-08-05T10:51:21.759Z,29.95
2022-08-05T10:54:01.943Z,29.93
2022-08-05T10:56:45.840Z,29.93
2022-08-05T11:00:03.501Z,29.94
2022-08-05T11:02:14.764Z,29.95
2022-08-05T11:04:59.025Z,29.92
2022-08-05T11:07:33.126Z,29.93
2022-08-05T11:10:23.040Z,30.04
2022-08-05T11:12:56.521Z,30.13
2022-08-05T11:15:59.446Z,30.12
2022-08-05T11:18:46.963Z,30.10
2022-08-05T11:21:48.773Z,30.12
2022-08-05T11:24:30.239Z,30.03
2022-08-05T11:27:45.833Z,30.10
2022-08-05T11:30:18.356Z,30.20
2022-08-05T11:32:45.173Z,30.21
2022-08-05T11:36:07.402Z,30.23
2022-08-05T11:38:45.536Z,30.23
2022-08-05T11:41:54.347Z,30.26
2022-08-05T11:44:40.752Z,30.41
2022-08-05T11:47:12.020Z,30.54
2022-08-05T11:49:43.199Z,30.56
2022-08-05T11:52:11.451Z,30.56
2022-08-05T11:54:40.550Z,30.61
2022-08-05T11:57:39.397Z,30.63
2022-08-05T11:59:55.483Z,30.75
2022-08-05T12:02:33.351Z,30.81
2022-08-05T12:05:06.982Z,30.75
2022-08-05T12:08:03.577Z,30.77
2022-08-05T12:10:38.672Z,30.72
2022-08-05T12:13:28.330Z,30.73
2022-08-05T12:16:14.959Z,30.74
2022-08-05T12:18:52.105Z,30.84
2022-08-05T12:21:30.164Z,30.99
2022-08-05T12:24:13.846Z,31.08
2022-08-05T12:26:52.242Z,31.13
2022-08-05T12:29:24.721Z,31.14
2022-08-05T12:31:54.329Z,31.23
2022-08-05T12:34:26.120Z,31.25
2022-08-05T12:36:54.573Z,31.14
2022-08-05T12:39:28.133Z,31.03
2022-08-05T12:42:02.118Z,31.02
2022-08-05T12:44:34.058Z,31.05
2022-08-05T12:47:02.232Z,31.01
2022-08-05T12:50:04.340Z,31.08
2022-08-05T12:52:42.308Z,31.15
2022-08-05T12:55:26.183Z,31.24
2022-08-05T12:58:49.608Z,31.34
2022-08-05T13:02:00.554Z,31.22
2022-08-05T13:03:33.970Z,31.16
2022-08-05T13:06:13.028Z,31.14
2022-08-05T13:08:40.274Z,31.04
2022-08-05T13:11:07.416Z,31.08
2022-08-05T13:14:04.754Z,31.15
2022-08-05T13:16:28.042Z,31.28
2022-08-05T13:18:59.181Z,31.25
2022-08-05T13:21:27.905Z,31.22
2022-08-05T13:23:55.440Z,31.22
2022-08-05T13:26:29.789Z,31.16
2022-08-05T13:28:57.427Z,31.29
2022-08-05T13:32:03.168Z,31.31
2022-08-05T13:34:23.914Z,31.27
2022-08-05T13:36:54.140Z,31.40
2022-08-05T13:40:13.877Z,31.43
2022-08-05T13:42:14.585Z,31.46
2022-08-05T13:44:46.281Z,31.45
2022-08-05T13:47:35.909Z,31.30
2022-08-05T13:50:04.670Z,31.07
2022-08-05T13:52:35.460Z,31.11
2022-08-05T13:55:07.807Z,31.14
2022-08-05T13:57:50.810Z,31.13
2022-08-05T14:00:26.942Z,31.14
2022-08-05T14:02:58.235Z,31.20
2022-08-05T14:05:48.620Z,31.17
2022-08-05T14:08:21.324Z,31.10
2022-08-05T14:11:03.255Z,31.04
2022-08-05T14:13:42.718Z,30.98
2022-08-05T14:16:11.596Z,30.99
2022-08-05T14:18:43.652Z,30.98
2022-08-05T14:22:10.388Z,31.00
2022-08-05T14:23:58.163Z,30.97
2022-08-05T14:26:38.286Z,30.89
2022-08-05T14:29:16.146Z,30.84
2022-08-05T14:32:02.459Z,30.85
2022-08-05T14:34:35.127Z,30.85
2022-08-05T14:37:04.424Z,30.88
2022-08-05T14:39:51.188Z,30.95
2022-08-05T14:42:29.421Z,30.88
2022-08-05T14:44:56.847Z,30.80
2022-08-05T14:48:03.318Z,30.78
2022-08-05T14:50:15.691Z,30.72
2022-08-05T14:52:53.127Z,30.67
2022-08-05T14:55:22.173Z,30.67
2022-08-05T14:57:56.037Z,30.53
2022-08-05T15:00:27.929Z,30.41
2022-08-05T15:02:55.379Z,30.37
2022-08-05T15:05:22.632Z,30.38
2022-08-05T15:08:09.037Z,30.35
2022-08-05T15:10:46.198Z,30.27
2022-08-05T15:13:13.816Z,30.17
2022-08-05T15:15:55.585Z,30.14
2022-08-05T15:18:24.678Z,30.11
2022-08-05T15:20:52.278Z,30.12
2022-08-05T15:23:19.708Z,30.14
2022-08-05T15:25:52.398Z,30.14
2022-08-05T15:28:27.401Z,30.10
2022-08-05T15:30:55.203Z,30.06
2022-08-05T15:34:04.146Z,29.95
2022-08-05T15:36:17.781Z,29.94
2022-08-05T15:40:41.208Z,29.95
2022-08-05T15:41:57.591Z,29.91
2022-08-05T15:44:27.782Z,29.86
2022-08-05T15:46:55.665Z,29.83
2022-08-05T15:49:40.886Z,29.82
2022-08-05T15:52:16.626Z,29.80
2022-08-05T15:54:56.697Z,29.78
2022-08-05T15:57:26.288Z,29.78
2022-08-05T15:59:59.649Z,29.74
2022-08-05T16:02:31.984Z,29.61
2022-08-05T16:04:59.846Z,29.58
2022-08-05T16:07:29.389Z,29.51
2022-08-05T16:09:57.022Z,29.46
2022-08-05T16:12:24.086Z,29.43
2022-08-05T16:14:51.021Z,29.41
2022-08-05T16:17:17.793Z,29.36
2022-08-05T16:20:04.716Z,29.34
2022-08-05T16:22:34.376Z,29.29
2022-08-05T16:25:08.015Z,29.24
2022-08-05T16:28:00.093Z,29.16
2022-08-05T16:30:29.046Z,29.10
2022-08-05T16:32:57.547Z,29.05
2022-08-05T16:35:27.972Z,28.98
2022-08-05T16:38:02.977Z,28.95
2022-08-05T16:40:47.651Z,28.93
2022-08-05T16:43:19.285Z,28.85
2022-08-05T16:46:05.422Z,28.76
2022-08-05T16:48:35.859Z,28.65
2022-08-05T16:51:03.775Z,28.64
2022-08-05T16:54:03.947Z,28.63
2022-08-05T16:56:23.989Z,28.55
2022-08-05T16:58:51.041Z,28.47
2022-08-05T17:01:18.919Z,28.41
2022-08-05T17:03:46.371Z,28.35
2022-08-05T17:06:16.530Z,28.28
2022-08-05T17:08:53.801Z,28.22
2022-08-05T17:11:23.725Z,28.13
2022-08-05T17:14:00.306Z,28.04
2022-08-05T17:16:36.547Z,27.98
2022-08-05T17:19:07.409Z,27.91
2022-08-05T17:21:35.639Z,27.84
2022-08-05T17:24:19.544Z,27.76
2022-08-05T17:26:57.630Z,27.70
2022-08-05T17:29:33.523Z,27.65
2022-08-05T17:32:16.696Z,27.55
2022-08-05T17:34:47.509Z,27.46
2022-08-05T17:37:35.933Z,27.37
2022-08-05T17:40:10.107Z,27.26
2022-08-05T17:42:42.863Z,27.17
2022-08-05T17:45:20.330Z,27.09
2022-08-05T17:47:54.638Z,26.99
2022-08-05T17:50:29.477Z,26.86
2022-08-05T17:52:59.275Z,26.76
2022-08-05T17:55:37.110Z,26.67
2022-08-05T17:58:09.407Z,26.57
2022-08-05T18:00:40.818Z,26.48
2022-08-05T18:03:55.901Z,26.41
2022-08-05T18:06:11.882Z,26.28
2022-08-05T18:08:45.478Z,26.19
2022-08-05T18:11:23.261Z,26.05
2022-08-05T18:13:52.229Z,25.92
2022-08-05T18:16:20.354Z,25.84
2022-08-05T18:18:48.007Z,25.80
2022-08-05T18:21:20.048Z,25.74
2022-08-05T18:23:53.651Z,25.67
2022-08-05T18:26:28.973Z,25.48
2022-08-05T18:28:59.210Z,25.26
2022-08-05T18:31:32.919Z,25.07
2022-08-05T18:34:06.022Z,24.91
2022-08-05T18:36:37.246Z,24.80
2022-08-05T18:39:09.728Z,24.63
2022-08-05T18:41:53.539Z,24.55
2022-08-05T18:44:34.684Z,24.45
2022-08-05T18:47:03.760Z,24.41
2022-08-05T18:49:58.358Z,24.40
2022-08-05T18:52:36.016Z,24.28
2022-08-05T18:55:05.829Z,24.15
2022-08-05T18:57:43.339Z,24.11
2022-08-05T19:00:20.966Z,24.02
2022-08-05T19:02:55.520Z,23.84
2022-08-05T19:06:11.758Z,23.73
2022-08-05T19:08:12.254Z,23.61
2022-08-05T19:10:40.590Z,23.50
2022-08-05T19:13:12.350Z,23.45
2022-08-05T19:15:59.841Z,23.44
2022-08-05T19:18:31.547Z,23.33
2022-08-05T19:20:59.110Z,23.29
2022-08-05T19:24:07.723Z,23.26
2022-08-05T19:26:14.090Z,23.23
2022-08-05T19:28:43.165Z,23.20
2022-08-05T19:31:12.918Z,23.17
2022-08-05T19:33:48.426Z,23.08
2022-08-05T19:36:25.684Z,23.00
2022-08-05T19:39:01.197Z,22.97
2022-08-05T19:41:57.995Z,22.97
2022-08-05T19:44:18.386Z,22.95
2022-08-05T19:46:46.594Z,22.89
2022-08-05T19:49:16.812Z,22.84
2022-08-05T19:52:05.733Z,22.77
2022-08-05T19:54:34.333Z,22.69
2022-08-05T19:57:06.839Z,22.57
2022-08-05T20:00:01.175Z,22.51
2022-08-05T20:02:29.823Z,22.45
2022-08-05T20:04:59.820Z,22.37
2022-08-05T20:07:46.591Z,22.32
2022-08-05T20:10:15.557Z,22.31
2022-08-05T20:12:47.819Z,22.26
2022-08-05T20:15:49.002Z,22.22
2022-08-05T20:18:10.457Z,22.12
2022-08-05T20:20:56.320Z,22.00
2022-08-05T20:23:39.357Z,21.97
2022-08-05T20:26:16.360Z,21.94
2022-08-05T20:28:56.284Z,21.90
2022-08-05T20:31:36.960Z,21.83
2022-08-05T20:34:11.425Z,21.77
2022-08-05T20:36:43.376Z,21.70
2022-08-05T20:39:13.273Z,21.63
2022-08-05T20:41:43.167Z,21.62
2022-08-05T20:44:17.876Z,21.59
2022-08-05T20:46:57.387Z,21.53
2022-08-05T20:49:25.949Z,21.49
2022-08-05T20:51:54.501Z,21.48
2022-08-05T20:54:24.915Z,21.48
2022-08-05T20:56:52.550Z,21.43
2022-08-05T20:59:26.438Z,21.40
2022-08-05T21:01:55.885Z,21.35
2022-08-05T21:04:26.906Z,21.33
2022-08-05T21:06:54.575Z,21.28
2022-08-05T21:09:22.634Z,21.27
2022-08-05T21:12:07.579Z,21.27
2022-08-05T21:14:38.352Z,21.31
2022-08-05T21:17:06.188Z,21.34
2022-08-05T21:19:47.331Z,21.33
2022-08-05T21:22:21.865Z,21.28
2022-08-05T21:24:53.690Z,21.25
2022-08-05T21:27:25.327Z,21.24
2022-08-05T21:29:55.863Z,21.19
2022-08-05T21:32:26.762Z,21.14
2022-08-05T21:35:08.824Z,21.11
2022-08-05T21:37:53.181Z,21.02
2022-08-05T21:40:22.641Z,20.96
2022-08-05T21:42:52.881Z,20.92
2022-08-05T21:45:24.767Z,20.90
2022-08-05T21:47:56.384Z,20.90
2022-08-05T21:50:26.013Z,20.91
2022-08-05T21:52:53.776Z,20.90
2022-08-05T21:56:01.418Z,20.87
2022-08-05T21:58:12.741Z,20.82
2022-08-05T22:00:40.146Z,20.80
2022-08-05T22:03:10.011Z,20.80
2022-08-05T22:05:49.261Z,20.78
2022-08-05T22:08:22.090Z,20.70
2022-08-05T22:10:51.823Z,20.65
2022-08-05T22:14:31.362Z,20.63
2022-08-05T22:16:15.756Z,20.61
2022-08-05T22:18:53.729Z,20.58
2022-08-05T22:21:25.376Z,20.56
2022-08-05T22:24:13.031Z,20.53
2022-08-05T22:27:17.582Z,20.49
2022-08-05T22:29:44.544Z,20.53
2022-08-05T22:32:12.936Z,20.55
2022-08-05T22:34:45.845Z,20.57
2022-08-05T22:37:13.314Z,20.58
2022-08-05T22:39:40.304Z,20.62
2022-08-05T22:42:12.463Z,20.64
2022-08-05T22:44:48.207Z,20.60
2022-08-05T22:47:29.170Z,20.56
2022-08-05T22:50:21.666Z,20.53
2022-08-05T22:52:47.984Z,20.54
2022-08-05T22:55:19.041Z,20.53
2022-08-05T22:57:49.706Z,20.50
2022-08-05T23:00:20.933Z,20.51
2022-08-05T23:02:50.007Z,20.55
2022-08-05T23:05:18.231Z,20.57
2022-08-05T23:07:49.655Z,20.59
2022-08-05T23:10:19.894Z,20.61
2022-08-05T23:12:51.165Z,20.62
2022-08-05T23:15:18.604Z,20.59
2022-08-05T23:18:00.409Z,20.58
2022-08-05T23:20:30.309Z,20.57
2022-08-05T23:22:58.678Z,20.57
2022-08-05T23:25:51.862Z,20.58
2022-08-05T23:28:15.941Z,20.58
2022-08-05T23:30:53.030Z,20.55
2022-08-05T23:34:03.361Z,20.53
2022-08-05T23:36:10.133Z,20.49
2022-08-05T23:38:38.018Z,20.45
2022-08-05T23:41:05.068Z,20.43
2022-08-05T23:44:03.129Z,20.39
2022-08-05T23:46:21.025Z,20.34
2022-08-05T23:49:00.919Z,20.30
2022-08-05T23:51:54.272Z,20.27
2022-08-05T23:54:38.156Z,20.22
2022-08-05T23:57:06.521Z,20.21
